createdAt,value
2023-01-12T00:00:30.174Z,-7845.91
2023-01-12T00:01:33.275Z,-7524.91
2023-01-12T00:02:36.396Z,-7203.63
2023-01-12T00:03:39.023Z,-7203.47
2023-01-12T00:04:41.702Z,-7846.47
2023-01-12T00:05:44.309Z,-7525.22
2023-01-12T00:06:47.308Z,-7526.03
2023-01-12T00:07:50.082Z,-6882.47
2023-01-12T00:08:53.549Z,-7525.69
2023-01-12T00:09:56.434Z,-7525.84
2023-01-12T00:10:59.207Z,-7526.50
2023-01-12T00:12:06.175Z,-7848.63
2023-01-12T00:13:09.158Z,-7848.38
2023-01-12T00:14:12.037Z,-8168.91
2023-01-12T00:15:15.043Z,-9133.13
2023-01-12T00:16:35.184Z,-10096.97
2023-01-12T00:17:38.210Z,-10095.78
2023-01-12T00:18:41.361Z,-10417.06
2023-01-12T00:19:44.449Z,-11380.03
2023-01-12T00:20:50.451Z,-12343.22
2023-01-12T00:21:58.988Z,-12664.63
2023-01-12T00:23:02.094Z,-12023.22
2023-01-12T00:24:07.738Z,-11379.47
2023-01-12T00:25:10.860Z,-12021.72
2023-01-12T00:26:13.984Z,-12020.91
2023-01-12T00:27:19.765Z,-12984.00
2023-01-12T00:28:23.583Z,-13303.31
2023-01-12T00:29:27.424Z,-13623.69
2023-01-12T00:30:30.550Z,-14264.97
2023-01-12T00:31:33.734Z,-14586.22
2023-01-12T00:32:36.910Z,-14585.66
2023-01-12T00:33:40.634Z,-14906.72
2023-01-12T00:34:44.233Z,-14906.31
2023-01-12T00:35:47.358Z,-14906.59
2023-01-12T00:36:50.837Z,-14587.19
2023-01-12T00:37:53.974Z,-13945.34
2023-01-12T00:38:57.201Z,-13946.94
2023-01-12T00:40:02.811Z,-14268.22
2023-01-12T00:41:08.004Z,-14268.75
2023-01-12T00:42:31.715Z,-13948.25
2023-01-12T00:43:53.729Z,-13304.97
2023-01-12T00:45:15.576Z,-12984.63
2023-01-12T00:46:19.093Z,-12663.88
2023-01-12T00:47:22.545Z,-12342.41
2023-01-12T00:48:26.144Z,-12342.28
2023-01-12T00:49:29.377Z,-12663.16
2023-01-12T00:50:32.378Z,-12663.41
2023-01-12T00:51:35.741Z,-12984.38
2023-01-12T00:52:38.631Z,-12984.50
2023-01-12T00:53:41.384Z,-13626.94
2023-01-12T00:54:44.147Z,-13946.94
2023-01-12T00:55:46.788Z,-14266.63
2023-01-12T00:56:49.563Z,-14908.00
2023-01-12T00:57:52.312Z,-15869.00
2023-01-12T00:58:55.073Z,-16829.31
2023-01-12T01:00:00.192Z,-18429.66
2023-01-12T01:01:08.032Z,-20032.31
2023-01-12T01:02:12.199Z,-20350.69
2023-01-12T01:03:15.003Z,-20350.13
2023-01-12T01:04:17.765Z,-20350.31
2023-01-12T01:05:20.408Z,-20347.34
2023-01-12T01:06:23.285Z,-20347.53
2023-01-12T01:07:25.973Z,-20345.88
2023-01-12T01:08:28.611Z,-20344.59
2023-01-12T01:09:31.610Z,-20343.47
2023-01-12T01:10:34.215Z,-20343.84
2023-01-12T01:11:36.892Z,-20344.03
2023-01-12T01:12:39.895Z,-20344.03
2023-01-12T01:13:46.259Z,-20343.28
2023-01-12T01:14:48.895Z,-20340.72
2023-01-12T01:15:51.397Z,-20340.88
2023-01-12T01:16:54.023Z,-20339.59
2023-01-12T01:17:56.698Z,-20340.34
2023-01-12T01:18:59.819Z,-20341.81
2023-01-12T01:20:02.376Z,-20340.72
2023-01-12T01:21:05.579Z,-20340.88
2023-01-12T01:22:08.191Z,-20340.34
2023-01-12T01:23:10.744Z,-20341.44
2023-01-12T01:24:14.210Z,-20341.44
2023-01-12T01:25:16.870Z,-20341.06
2023-01-12T01:26:22.991Z,-20342.00
2023-01-12T01:27:25.633Z,-20338.13
2023-01-12T01:28:28.390Z,-20337.75
2023-01-12T01:29:31.269Z,-20336.66
2023-01-12T01:30:34.040Z,-20336.66
2023-01-12T01:31:37.267Z,-20336.47
2023-01-12T01:32:39.806Z,-20336.66
2023-01-12T01:33:43.271Z,-20338.13
2023-01-12T01:34:47.239Z,-20336.66
2023-01-12T01:35:49.869Z,-20337.38
2023-01-12T01:36:52.403Z,-20338.13
2023-01-12T01:37:55.038Z,-20336.28
2023-01-12T01:38:57.805Z,-20336.84
2023-01-12T01:40:00.355Z,-20335.72
2023-01-12T01:41:04.643Z,-20335.72
2023-01-12T01:42:28.059Z,-20334.63
2023-01-12T01:44:08.237Z,-20336.28
2023-01-12T01:45:12.676Z,-20334.63
2023-01-12T01:46:21.841Z,-20334.25
2023-01-12T01:47:35.493Z,-20335.16
2023-01-12T01:48:40.060Z,-20336.47
2023-01-12T01:49:49.759Z,-20335.53
2023-01-12T01:50:59.840Z,-20336.66
2023-01-12T01:52:27.811Z,-20337.75
2023-01-12T01:53:32.483Z,-20337.03
2023-01-12T01:54:41.724Z,-20335.91
2023-01-12T01:55:51.332Z,-20337.03
2023-01-12T01:56:56.609Z,-20337.03
2023-01-12T01:58:02.983Z,-20336.28
2023-01-12T01:59:14.731Z,-20335.91
2023-01-12T02:00:17.627Z,-20334.06
2023-01-12T02:01:20.293Z,-20333.69
2023-01-12T02:02:25.721Z,-20334.97
2023-01-12T02:03:29.482Z,-20333.88
2023-01-12T02:04:33.458Z,-20332.59
2023-01-12T02:05:38.023Z,-20333.69
2023-01-12T02:06:41.030Z,-20334.06
2023-01-12T02:07:44.866Z,-20331.84
2023-01-12T02:08:54.589Z,-20334.06
2023-01-12T02:09:57.373Z,-20332.22
2023-01-12T02:11:01.326Z,-20332.59
2023-01-12T02:12:23.274Z,-20343.66
2023-01-12T02:13:47.516Z,-20333.88
2023-01-12T02:15:10.918Z,-20334.25
2023-01-12T02:16:25.807Z,-20333.69
2023-01-12T02:17:43.692Z,-20335.91
2023-01-12T02:19:01.682Z,-20334.81
2023-01-12T02:20:16.808Z,-20334.81
2023-01-12T02:21:38.168Z,-20333.50
2023-01-12T02:22:56.171Z,-20335.53
2023-01-12T02:24:14.055Z,-20335.53
2023-01-12T02:25:42.254Z,-20335.34
2023-01-12T02:27:08.305Z,-20333.69
2023-01-12T02:28:51.863Z,-20335.16
2023-01-12T02:30:32.304Z,-20335.91
2023-01-12T02:32:10.467Z,-20338.31
2023-01-12T02:33:43.589Z,-20338.50
2023-01-12T02:34:56.694Z,-20338.88
2023-01-12T02:36:35.793Z,-20341.81
2023-01-12T02:37:57.155Z,-20340.53
2023-01-12T02:39:08.201Z,-20340.88
2023-01-12T02:40:35.558Z,-20342.38
2023-01-12T02:42:25.969Z,-20343.66
2023-01-12T02:43:31.843Z,-20343.66
2023-01-12T02:44:47.085Z,-20343.66
2023-01-12T02:46:16.059Z,-20344.22
2023-01-12T02:47:30.052Z,-20343.66
2023-01-12T02:48:52.042Z,-20344.41
2023-01-12T02:50:00.054Z,-20344.41
2023-01-12T02:51:19.256Z,-20346.63
2023-01-12T02:52:27.187Z,-20345.50
2023-01-12T02:53:48.193Z,-20346.25
2023-01-12T02:54:52.630Z,-20348.09
2023-01-12T02:55:55.522Z,-20345.50
2023-01-12T02:57:04.988Z,-20347.00
2023-01-12T02:58:12.675Z,-20347.72
2023-01-12T02:59:30.795Z,-20349.75
2023-01-12T03:00:38.424Z,-20350.31
2023-01-12T03:01:42.956Z,-20351.41
2023-01-12T03:02:45.568Z,-20350.69
2023-01-12T03:03:52.396Z,-20354.00
2023-01-12T03:04:55.464Z,-20353.44
2023-01-12T03:05:59.966Z,-20355.09
2023-01-12T03:07:02.534Z,-20356.03
2023-01-12T03:08:05.773Z,-20358.06
2023-01-12T03:09:09.089Z,-20358.06
2023-01-12T03:10:48.982Z,-20361.19
2023-01-12T03:11:55.454Z,-20360.84
2023-01-12T03:13:00.820Z,-20360.09
2023-01-12T03:14:03.974Z,-20359.53
2023-01-12T03:15:09.218Z,-20360.66
2023-01-12T03:16:15.055Z,-20360.28
2023-01-12T03:17:26.779Z,-20362.50
2023-01-12T03:18:41.802Z,-20363.78
2023-01-12T03:19:45.744Z,-20363.22
2023-01-12T03:20:53.783Z,-20363.97
2023-01-12T03:21:59.660Z,-20363.59
2023-01-12T03:23:11.080Z,-20362.88
2023-01-12T03:24:17.185Z,-20363.59
2023-01-12T03:25:21.867Z,-20363.41
2023-01-12T03:26:27.988Z,-20365.81
2023-01-12T03:27:40.104Z,-20365.44
2023-01-12T03:28:47.788Z,-20364.91
2023-01-12T03:30:04.347Z,-20365.44
2023-01-12T03:31:11.151Z,-20363.59
2023-01-12T03:32:14.064Z,-20363.22
2023-01-12T03:33:16.585Z,-20363.78
2023-01-12T03:34:19.351Z,-20362.31
2023-01-12T03:35:27.393Z,-20365.25
2023-01-12T03:36:56.319Z,-20363.41
2023-01-12T03:38:15.988Z,-20362.13
2023-01-12T03:39:42.273Z,-20361.56
2023-01-12T03:40:49.851Z,-20360.66
2023-01-12T03:42:17.678Z,-20360.28
2023-01-12T03:43:44.079Z,-20357.69
2023-01-12T03:45:01.357Z,-20357.34
2023-01-12T03:46:21.376Z,-20356.03
2023-01-12T03:47:31.001Z,-20356.22
2023-01-12T03:48:43.121Z,-20355.09
2023-01-12T03:49:52.596Z,-20354.00
2023-01-12T03:51:02.813Z,-20355.09
2023-01-12T03:52:07.484Z,-20354.00
2023-01-12T03:53:12.403Z,-20354.38
2023-01-12T03:54:17.205Z,-20354.75
2023-01-12T03:55:23.351Z,-20355.47
2023-01-12T03:56:31.364Z,-20355.28
2023-01-12T03:57:35.113Z,-20355.09
2023-01-12T03:58:38.098Z,-20354.75
2023-01-12T03:59:41.475Z,-20354.00
2023-01-12T04:00:44.855Z,-20355.09
2023-01-12T04:01:49.159Z,-20354.75
2023-01-12T04:03:11.960Z,-20355.47
2023-01-12T04:04:14.939Z,-20353.63
2023-01-12T04:05:17.459Z,-20353.63
2023-01-12T04:06:20.098Z,-20353.81
2023-01-12T04:07:23.827Z,-20354.00
2023-01-12T04:08:27.433Z,-20353.44
2023-01-12T04:09:30.063Z,-20353.81
2023-01-12T04:10:32.724Z,-20353.25
2023-01-12T04:11:53.827Z,-20354.38
2023-01-12T04:12:56.493Z,-20356.97
2023-01-12T04:13:59.111Z,-20353.63
2023-01-12T04:15:01.760Z,-20353.25
2023-01-12T04:16:04.423Z,-20353.25
2023-01-12T04:17:07.882Z,-20353.63
2023-01-12T04:18:12.080Z,-20353.63
2023-01-12T04:19:14.979Z,-20351.59
2023-01-12T04:20:17.844Z,-20351.41
2023-01-12T04:21:39.324Z,-20351.78
2023-01-12T04:22:45.095Z,-20351.03
2023-01-12T04:23:50.635Z,-20351.03
2023-01-12T04:24:53.728Z,-20350.31
2023-01-12T04:25:56.858Z,-20351.03
2023-01-12T04:26:59.985Z,-20351.03
2023-01-12T04:28:03.577Z,-20352.16
2023-01-12T04:29:06.697Z,-20351.59
2023-01-12T04:30:11.978Z,-20351.78
2023-01-12T04:31:15.344Z,-20351.41
2023-01-12T04:32:18.526Z,-20352.16
2023-01-12T04:33:21.704Z,-20352.91
2023-01-12T04:34:24.836Z,-20354.38
2023-01-12T04:35:28.308Z,-20352.91
2023-01-12T04:36:31.549Z,-20353.25
2023-01-12T04:37:35.152Z,-20353.63
2023-01-12T04:38:40.075Z,-20354.00
2023-01-12T04:39:43.327Z,-20353.44
2023-01-12T04:40:46.557Z,-20352.91
2023-01-12T04:41:49.679Z,-20353.06
2023-01-12T04:43:01.803Z,-20354.38
2023-01-12T04:44:05.166Z,-20353.63
2023-01-12T04:45:09.003Z,-20354.00
2023-01-12T04:46:12.300Z,-20352.91
2023-01-12T04:47:15.488Z,-20354.19
2023-01-12T04:48:19.941Z,-20354.19
2023-01-12T04:49:23.059Z,-20353.63
2023-01-12T04:50:26.293Z,-20354.38
2023-01-12T04:51:29.534Z,-20354.00
2023-01-12T04:52:32.781Z,-20355.47
2023-01-12T04:53:36.059Z,-20355.09
2023-01-12T04:54:39.383Z,-20355.09
2023-01-12T04:55:44.200Z,-20355.66
2023-01-12T04:56:47.188Z,-20354.75
2023-01-12T04:57:49.947Z,-20355.66
2023-01-12T04:59:00.384Z,-20355.84
2023-01-12T05:00:05.800Z,-20356.22
2023-01-12T05:01:17.797Z,-20358.06
2023-01-12T05:02:20.799Z,-20356.03
2023-01-12T05:03:23.673Z,-20356.22
2023-01-12T05:04:26.572Z,-20356.22
2023-01-12T05:05:31.528Z,-20357.16
2023-01-12T05:06:34.119Z,-20355.84
2023-01-12T05:07:36.879Z,-20355.84
2023-01-12T05:08:58.373Z,-20355.84
2023-01-12T05:10:19.365Z,-20356.41
2023-01-12T05:11:21.885Z,-20360.47
2023-01-12T05:12:24.409Z,-20357.69
2023-01-12T05:13:30.649Z,-20358.25
2023-01-12T05:14:33.410Z,-20357.69
2023-01-12T05:15:36.097Z,-20357.69
2023-01-12T05:16:39.014Z,-20357.16
2023-01-12T05:17:41.696Z,-20357.34
2023-01-12T05:18:46.067Z,-20358.25
2023-01-12T05:19:49.778Z,-20356.78
2023-01-12T05:20:52.266Z,-20357.16
2023-01-12T05:21:54.821Z,-20355.47
2023-01-12T05:22:57.221Z,-20356.41
2023-01-12T05:23:59.741Z,-20357.16
2023-01-12T05:25:02.264Z,-20356.59
2023-01-12T05:26:06.225Z,-20358.44
2023-01-12T05:27:08.864Z,-20357.34
2023-01-12T05:28:11.536Z,-20357.69
2023-01-12T05:29:14.356Z,-20356.78
2023-01-12T05:30:16.907Z,-20357.34
2023-01-12T05:31:22.571Z,-20356.41
2023-01-12T05:32:25.786Z,-20356.97
2023-01-12T05:33:28.434Z,-20357.69
2023-01-12T05:34:31.186Z,-20358.06
2023-01-12T05:35:33.828Z,-20357.69
2023-01-12T05:36:36.461Z,-20357.34
2023-01-12T05:37:38.989Z,-20357.16
2023-01-12T05:38:42.261Z,-20358.06
2023-01-12T05:39:44.871Z,-20358.25
2023-01-12T05:40:47.403Z,-20357.88
2023-01-12T05:42:08.277Z,-20357.34
2023-01-12T05:43:32.642Z,-20358.81
2023-01-12T05:44:35.276Z,-20357.16
2023-01-12T05:45:38.044Z,-20357.69
2023-01-12T05:46:41.417Z,-20357.50
2023-01-12T05:47:44.640Z,-20358.06
2023-01-12T05:48:47.549Z,-20356.97
2023-01-12T05:49:50.046Z,-20357.34
2023-01-12T05:50:52.558Z,-20358.06
2023-01-12T05:51:55.081Z,-20357.69
2023-01-12T05:52:57.599Z,-20358.06
2023-01-12T05:54:00.118Z,-20358.63
2023-01-12T05:55:02.654Z,-20358.81
2023-01-12T05:56:17.770Z,-20359.53
2023-01-12T05:57:20.523Z,-20358.06
2023-01-12T05:58:23.405Z,-20358.44
2023-01-12T05:59:25.932Z,-20357.34
2023-01-12T06:00:28.572Z,-20357.69
2023-01-12T06:01:32.179Z,-20357.50
2023-01-12T06:02:34.736Z,-20357.69
2023-01-12T06:03:37.464Z,-20357.34
2023-01-12T06:04:40.213Z,-20358.06
2023-01-12T06:05:43.103Z,-20359.00
2023-01-12T06:06:46.617Z,-20358.81
2023-01-12T06:07:49.109Z,-20358.06
2023-01-12T06:08:52.828Z,-20357.69
2023-01-12T06:09:55.461Z,-20358.81
2023-01-12T06:11:02.548Z,-20361.19
2023-01-12T06:12:24.028Z,-20359.53
2023-01-12T06:13:45.028Z,-20359.00
2023-01-12T06:14:47.312Z,-20361.75
2023-01-12T06:15:49.906Z,-20357.88
2023-01-12T06:16:52.595Z,-20357.88
2023-01-12T06:17:57.043Z,-20358.81
2023-01-12T06:18:59.683Z,-20357.69
2023-01-12T06:20:02.441Z,-20357.34
2023-01-12T06:21:07.853Z,-20358.81
2023-01-12T06:22:10.977Z,-20357.34
2023-01-12T06:23:14.356Z,-20356.41
2023-01-12T06:24:17.811Z,-20355.47
2023-01-12T06:25:20.956Z,-20354.38
2023-01-12T06:26:24.167Z,-20354.38
2023-01-12T06:27:32.215Z,-20353.63
2023-01-12T06:28:39.773Z,-20355.28
2023-01-12T06:29:43.735Z,-20355.09
2023-01-12T06:30:54.783Z,-20353.63
2023-01-12T06:31:57.901Z,-20350.31
2023-01-12T06:33:03.901Z,-20351.22
2023-01-12T06:34:08.341Z,-20350.84
2023-01-12T06:35:19.082Z,-20349.94
2023-01-12T06:36:22.989Z,-20349.56
2023-01-12T06:37:26.588Z,-20350.50
2023-01-12T06:38:32.109Z,-20351.78
2023-01-12T06:39:35.231Z,-20350.50
2023-01-12T06:40:38.354Z,-20351.59
2023-01-12T06:42:00.192Z,-20351.03
2023-01-12T06:43:03.317Z,-20349.94
2023-01-12T06:44:06.445Z,-20350.31
2023-01-12T06:45:10.281Z,-20351.22
2023-01-12T06:46:13.471Z,-20351.78
2023-01-12T06:47:16.522Z,-20351.41
2023-01-12T06:48:22.649Z,-20351.97
2023-01-12T06:49:25.645Z,-20351.03
2023-01-12T06:50:29.007Z,-20351.03
2023-01-12T06:51:32.369Z,-20350.84
2023-01-12T06:52:35.614Z,-20352.34
2023-01-12T06:53:38.983Z,-20350.69
2023-01-12T06:54:42.217Z,-20349.94
2023-01-12T06:55:52.180Z,-20351.41
2023-01-12T06:57:03.343Z,-20351.59
2023-01-12T06:58:06.706Z,-20349.94
2023-01-12T06:59:13.072Z,-20350.69
2023-01-12T07:00:16.068Z,-20349.19
2023-01-12T07:01:19.143Z,-20349.00
2023-01-12T07:02:22.193Z,-20348.47
2023-01-12T07:03:24.953Z,-20349.56
2023-01-12T07:04:27.994Z,-20349.56
2023-01-12T07:05:30.473Z,-20348.47
2023-01-12T07:06:33.841Z,-20349.94
2023-01-12T07:07:39.971Z,-20349.38
2023-01-12T07:08:43.564Z,-20348.84
2023-01-12T07:09:46.253Z,-20349.94
2023-01-12T07:10:48.731Z,-20348.47
2023-01-12T07:11:51.364Z,-20349.38
2023-01-12T07:12:54.248Z,-20348.84
2023-01-12T07:13:56.813Z,-20348.28
2023-01-12T07:14:59.936Z,-20348.09
2023-01-12T07:16:02.741Z,-20349.19
2023-01-12T07:17:05.343Z,-20349.00
2023-01-12T07:18:08.175Z,-20348.66
2023-01-12T07:19:10.620Z,-20348.09
2023-01-12T07:20:13.139Z,-20347.72
2023-01-12T07:21:16.996Z,-20347.91
2023-01-12T07:22:19.465Z,-20347.34
2023-01-12T07:23:22.230Z,-20347.91
2023-01-12T07:24:24.661Z,-20349.19
2023-01-12T07:25:27.997Z,-20349.38
2023-01-12T07:26:30.675Z,-20348.47
2023-01-12T07:27:33.326Z,-20349.94
2023-01-12T07:28:35.836Z,-20349.19
2023-01-12T07:29:39.922Z,-20350.84
2023-01-12T07:30:42.990Z,-20352.34
2023-01-12T07:31:45.788Z,-20351.78
2023-01-12T07:32:49.629Z,-20352.91
2023-01-12T07:33:54.188Z,-20353.06
2023-01-12T07:34:56.710Z,-20352.16
2023-01-12T07:36:00.432Z,-20354.38
2023-01-12T07:37:03.086Z,-20353.06
2023-01-12T07:38:06.440Z,-20352.91
2023-01-12T07:39:10.871Z,-20354.00
2023-01-12T07:40:13.527Z,-20354.00
2023-01-12T07:41:34.879Z,-20354.75
2023-01-12T07:42:44.494Z,-20355.47
2023-01-12T07:43:48.194Z,-20355.84
2023-01-12T07:44:50.836Z,-20355.28
2023-01-12T07:45:56.357Z,-20358.06
2023-01-12T07:46:59.844Z,-20356.97
2023-01-12T07:48:02.388Z,-20357.34
2023-01-12T07:49:05.006Z,-20357.50
2023-01-12T07:50:07.887Z,-20359.53
2023-01-12T07:51:10.400Z,-20360.09
2023-01-12T07:52:14.139Z,-20361.00
2023-01-12T07:53:16.760Z,-20361.19
2023-01-12T07:54:19.400Z,-20361.00
2023-01-12T07:55:21.938Z,-20360.84
2023-01-12T07:56:24.566Z,-20361.94
2023-01-12T07:57:27.088Z,-20361.38
2023-01-12T07:58:30.937Z,-20361.94
2023-01-12T07:59:33.452Z,-20361.94
2023-01-12T08:00:36.934Z,-20363.22
2023-01-12T08:01:41.150Z,-20362.13
2023-01-12T08:02:43.653Z,-20363.22
2023-01-12T08:03:46.169Z,-20364.34
2023-01-12T08:04:48.703Z,-20364.72
2023-01-12T08:05:51.410Z,-20365.81
2023-01-12T08:06:53.978Z,-20365.81
2023-01-12T08:07:56.495Z,-20366.94
2023-01-12T08:08:59.027Z,-20366.75
2023-01-12T08:10:01.552Z,-20366.75
2023-01-12T08:11:06.109Z,-20368.22
2023-01-12T08:12:08.747Z,-20367.66
2023-01-12T08:13:11.506Z,-20368.41
2023-01-12T08:14:33.588Z,-20370.25
2023-01-12T08:15:42.227Z,-20370.06
2023-01-12T08:16:46.913Z,-20370.63
2023-01-12T08:17:54.474Z,-20371.72
2023-01-12T08:19:09.864Z,-20372.84
2023-01-12T08:20:19.195Z,-20373.19
2023-01-12T08:21:26.879Z,-20373.94
2023-01-12T08:22:36.122Z,-20374.69
2023-01-12T08:23:50.041Z,-20374.88
2023-01-12T08:25:00.158Z,-20376.53
2023-01-12T08:26:06.853Z,-20376.34
2023-01-12T08:27:10.808Z,-20375.41
2023-01-12T08:28:19.703Z,-20375.78
2023-01-12T08:29:32.315Z,-20376.72
2023-01-12T08:30:35.898Z,-20377.09
2023-01-12T08:31:39.615Z,-20377.81
2023-01-12T08:32:42.996Z,-20378.00
2023-01-12T08:33:46.697Z,-20378.75
2023-01-12T08:34:52.698Z,-20379.84
2023-01-12T08:35:55.828Z,-20379.47
2023-01-12T08:37:02.422Z,-20381.31
2023-01-12T08:38:05.927Z,-20382.63
2023-01-12T08:39:09.026Z,-20382.44
2023-01-12T08:40:12.753Z,-20382.44
2023-01-12T08:41:33.884Z,-20382.25
2023-01-12T08:42:36.997Z,-20383.53
2023-01-12T08:43:58.598Z,-20384.28
2023-01-12T08:45:01.841Z,-20384.09
2023-01-12T08:46:08.323Z,-20385.75
2023-01-12T08:47:28.719Z,-20388.53
2023-01-12T08:48:31.842Z,-20387.59
2023-01-12T08:49:34.966Z,-20387.59
2023-01-12T08:50:38.323Z,-20388.88
2023-01-12T08:51:42.049Z,-20388.72
2023-01-12T08:52:45.168Z,-20389.44
2023-01-12T08:53:49.373Z,-20389.06
2023-01-12T08:54:52.615Z,-20390.56
2023-01-12T08:55:55.987Z,-20391.66
2023-01-12T08:56:59.216Z,-20392.03
2023-01-12T08:58:02.457Z,-20391.09
2023-01-12T08:59:06.059Z,-20391.84
2023-01-12T09:00:09.906Z,-20391.09
2023-01-12T09:01:16.257Z,-20393.13
2023-01-12T09:02:19.438Z,-20393.69
2023-01-12T09:03:22.747Z,-20393.13
2023-01-12T09:04:25.628Z,-20392.78
2023-01-12T09:05:28.393Z,-20392.41
2023-01-12T09:06:42.557Z,-20393.31
2023-01-12T09:07:45.432Z,-20392.03
2023-01-12T09:08:48.679Z,-20392.78
2023-01-12T09:09:51.558Z,-20393.13
2023-01-12T09:10:54.318Z,-20394.97
2023-01-12T09:11:57.142Z,-20395.16
2023-01-12T09:12:59.960Z,-20394.63
2023-01-12T09:14:02.601Z,-20396.09
2023-01-12T09:15:05.538Z,-20396.47
2023-01-12T09:16:12.691Z,-20397.56
2023-01-12T09:17:15.692Z,-20397.00
2023-01-12T09:18:19.690Z,-20397.19
2023-01-12T09:19:23.177Z,-20395.72
2023-01-12T09:20:25.710Z,-20395.72
2023-01-12T09:21:29.665Z,-20396.84
2023-01-12T09:22:32.269Z,-20397.94
2023-01-12T09:23:36.143Z,-20399.59
2023-01-12T09:24:38.666Z,-20400.53
2023-01-12T09:25:41.323Z,-20400.88
2023-01-12T09:26:46.183Z,-20401.63
2023-01-12T09:27:48.867Z,-20402.00
2023-01-12T09:28:51.753Z,-20402.38
2023-01-12T09:29:54.394Z,-20403.47
2023-01-12T09:31:01.080Z,-20405.31
2023-01-12T09:32:03.742Z,-20402.56
2023-01-12T09:33:06.266Z,-20402.91
2023-01-12T09:34:09.304Z,-20403.47
2023-01-12T09:35:11.882Z,-20403.84
2023-01-12T09:36:35.547Z,-20406.81
2023-01-12T09:37:40.599Z,-20404.59
2023-01-12T09:38:44.677Z,-20407.53
2023-01-12T09:39:47.286Z,-20406.06
2023-01-12T09:40:49.833Z,-20407.16
2023-01-12T09:42:10.832Z,-20407.91
2023-01-12T09:43:32.796Z,-20410.84
2023-01-12T09:44:59.685Z,-20409.75
2023-01-12T09:46:21.035Z,-20408.63
2023-01-12T09:47:41.574Z,-20409.00
2023-01-12T09:48:45.037Z,-20408.63
2023-01-12T09:50:08.127Z,-20409.94
2023-01-12T09:51:24.642Z,-20408.09
2023-01-12T09:52:34.480Z,-20410.13
2023-01-12T09:53:40.368Z,-20409.19
2023-01-12T09:54:43.242Z,-20407.34
2023-01-12T09:56:10.253Z,-20409.75
2023-01-12T09:57:30.536Z,-20408.63
2023-01-12T09:58:54.885Z,-20411.22
2023-01-12T10:00:11.452Z,-20411.22
2023-01-12T10:01:28.845Z,-20409.75
2023-01-12T10:02:40.255Z,-20410.84
2023-01-12T10:03:43.821Z,-20410.13
2023-01-12T10:04:49.852Z,-20411.97
2023-01-12T10:05:54.897Z,-20412.16
2023-01-12T10:06:57.662Z,-20411.97
2023-01-12T10:08:00.293Z,-20416.38
2023-01-12T10:09:10.384Z,-20418.44
2023-01-12T10:10:15.675Z,-20418.25
2023-01-12T10:11:33.065Z,-20422.31
2023-01-12T10:12:42.542Z,-20424.72
2023-01-12T10:13:56.823Z,-20423.41
2023-01-12T10:15:09.071Z,-20423.03
2023-01-12T10:16:25.309Z,-20422.31
2023-01-12T10:17:52.437Z,-20422.50
2023-01-12T10:19:00.805Z,-20420.81
2023-01-12T10:20:21.796Z,-20418.97
2023-01-12T10:21:32.859Z,-20419.34
2023-01-12T10:22:44.121Z,-20422.13
2023-01-12T10:23:46.759Z,-20420.81
2023-01-12T10:24:50.003Z,-20421.56
2023-01-12T10:26:18.459Z,-20423.78
2023-01-12T10:27:21.325Z,-20422.84
2023-01-12T10:28:36.333Z,-20422.84
2023-01-12T10:29:39.236Z,-20422.66
2023-01-12T10:30:42.579Z,-20422.31
2023-01-12T10:31:45.618Z,-20423.78
2023-01-12T10:32:48.816Z,-20421.75
2023-01-12T10:34:09.338Z,-20426.00
2023-01-12T10:35:18.104Z,-20426.00
2023-01-12T10:36:21.339Z,-20423.59
2023-01-12T10:37:24.464Z,-20423.59
2023-01-12T10:38:35.102Z,-20423.78
2023-01-12T10:39:43.903Z,-20424.53
2023-01-12T10:41:07.204Z,-20426.75
2023-01-12T10:42:43.546Z,-20427.28
2023-01-12T10:44:08.637Z,-20426.38
2023-01-12T10:45:21.598Z,-20426.94
2023-01-12T10:46:28.795Z,-20427.28
2023-01-12T10:47:34.092Z,-20427.47
2023-01-12T10:48:43.341Z,-20430.44
2023-01-12T10:49:46.800Z,-20430.06
2023-01-12T10:51:05.655Z,-20432.66
2023-01-12T10:52:32.291Z,-20434.13
2023-01-12T10:53:47.175Z,-20438.91
2023-01-12T10:54:50.297Z,-20438.56
2023-01-12T10:55:53.890Z,-20438.91
2023-01-12T10:57:20.180Z,-20438.19
2023-01-12T10:58:28.095Z,-20438.19
2023-01-12T10:59:38.537Z,-20439.84
2023-01-12T11:00:49.096Z,-20439.28
2023-01-12T11:02:14.646Z,-20439.28
2023-01-12T11:03:32.545Z,-20440.41
2023-01-12T11:04:40.226Z,-20440.41
2023-01-12T11:05:45.152Z,-20438.56
2023-01-12T11:07:26.923Z,-20441.69
2023-01-12T11:08:30.039Z,-20441.13
2023-01-12T11:09:33.155Z,-20442.63
2023-01-12T11:10:37.591Z,-20442.78
2023-01-12T11:11:40.836Z,-20445.94
2023-01-12T11:12:43.725Z,-20445.19
2023-01-12T11:13:46.484Z,-20446.50
2023-01-12T11:15:03.060Z,-20449.44
2023-01-12T11:16:11.780Z,-20449.44
2023-01-12T11:17:20.263Z,-20449.63
2023-01-12T11:19:10.367Z,-20450.00
2023-01-12T11:20:28.077Z,-20449.44
2023-01-12T11:21:34.906Z,-20448.88
2023-01-12T11:22:38.819Z,-20448.16
2023-01-12T11:24:17.260Z,-20450.38
2023-01-12T11:25:26.845Z,-20449.81
2023-01-12T11:26:43.188Z,-20450.38
2023-01-12T11:27:59.269Z,-20448.53
2023-01-12T11:29:17.625Z,-20453.31
2023-01-12T11:30:27.458Z,-20454.44
2023-01-12T11:31:39.237Z,-20456.09
2023-01-12T11:33:08.900Z,-20455.72
2023-01-12T11:34:22.042Z,-20459.59
2023-01-12T11:36:00.710Z,-20461.25
2023-01-12T11:37:11.362Z,-20461.81
2023-01-12T11:38:21.116Z,-20466.97
2023-01-12T11:39:26.164Z,-20468.09
2023-01-12T11:40:33.958Z,-20474.34
2023-01-12T11:42:07.808Z,-20474.53
2023-01-12T11:43:50.283Z,-20474.19
2023-01-12T11:45:08.036Z,-20472.88
2023-01-12T11:46:48.839Z,-20473.06
2023-01-12T11:48:06.000Z,-20473.63
2023-01-12T11:49:27.737Z,-20473.44
2023-01-12T11:50:36.010Z,-20471.78
2023-01-12T11:51:39.244Z,-20469.19
2023-01-12T11:52:42.490Z,-20468.81
2023-01-12T11:53:45.605Z,-20469.56
2023-01-12T11:54:48.245Z,-20467.34
2023-01-12T11:56:14.766Z,-20469.56
2023-01-12T11:57:20.044Z,-20467.34
2023-01-12T11:58:25.679Z,-20466.97
2023-01-12T12:00:06.743Z,-20468.63
2023-01-12T12:01:17.792Z,-20469.56
2023-01-12T12:02:26.686Z,-20469.19
2023-01-12T12:03:35.607Z,-20472.50
2023-01-12T12:05:05.297Z,-20472.16
2023-01-12T12:06:20.291Z,-20471.97
2023-01-12T12:07:34.460Z,-20472.50
2023-01-12T12:08:48.132Z,-20473.63
2023-01-12T12:10:11.073Z,-20475.09
2023-01-12T12:11:13.454Z,-20471.41
2023-01-12T12:12:40.095Z,-20476.22
2023-01-12T12:13:51.624Z,-20474.19
2023-01-12T12:14:55.107Z,-20474.34
2023-01-12T12:16:34.583Z,-20476.94
2023-01-12T12:17:42.505Z,-20477.69
2023-01-12T12:19:06.871Z,-20474.34
2023-01-12T12:20:35.197Z,-20478.06
2023-01-12T12:21:51.036Z,-20478.41
2023-01-12T12:23:41.279Z,-20479.72
2023-01-12T12:24:58.121Z,-20483.22
2023-01-12T12:26:35.442Z,-20485.81
2023-01-12T12:27:58.964Z,-20487.28
2023-01-12T12:29:25.752Z,-20490.41
2023-01-12T12:30:46.777Z,-20489.50
2023-01-12T12:32:27.058Z,-20490.59
2023-01-12T12:33:30.052Z,-20491.34
2023-01-12T12:34:57.199Z,-20492.09
2023-01-12T12:36:10.860Z,-20493.19
2023-01-12T12:37:19.625Z,-20492.63
2023-01-12T12:38:39.178Z,-20492.09
2023-01-12T12:39:50.591Z,-20491.34
2023-01-12T12:41:34.144Z,-20495.03
2023-01-12T12:43:11.121Z,-20495.22
2023-01-12T12:45:01.409Z,-20496.88
2023-01-12T12:46:19.403Z,-20500.75
2023-01-12T12:47:31.755Z,-20503.16
2023-01-12T12:48:44.242Z,-20505.38
2023-01-12T12:49:48.076Z,-20506.06
2023-01-12T12:50:57.104Z,-19866.34
2023-01-12T12:52:01.884Z,-18576.25
2023-01-12T12:53:15.815Z,-16963.50
2023-01-12T12:54:20.972Z,-15349.56
2023-01-12T12:55:24.448Z,-13734.03
2023-01-12T12:56:30.813Z,-13734.78
2023-01-12T12:58:07.170Z,-12442.38
2023-01-12T12:59:39.094Z,-11471.50
2023-01-12T13:00:47.156Z,-11470.63
2023-01-12T13:01:57.500Z,-11792.94